sensor_id;sensor_type;location;lat;lon;timestamp;pressure;altitude;pressure_sealevel;temperature;humidity
26436;BME280;15351;52.408;16.826;2023-09-19T00:05:09;99948.39;;;21.84;75.97
26436;BME280;15351;52.408;16.826;2023-09-19T00:08:23;99948.89;;;21.89;76.32
26436;BME280;15351;52.408;16.826;2023-09-19T00:11:12;99955.72;;;21.91;76.42
26436;BME280;15351;52.408;16.826;2023-09-19T00:14:31;99965.33;;;21.90;76.36
26436;BME280;15351;52.408;16.826;2023-09-19T00:17:24;99974.98;;;21.85;76.47
26436;BME280;15351;52.408;16.826;2023-09-19T00:20:31;99980.54;;;21.65;76.77
26436;BME280;15351;52.408;16.826;2023-09-19T00:27:31;99991.70;;;21.33;78.30
26436;BME280;15351;52.408;16.826;2023-09-19T00:30:58;99993.52;;;21.17;78.99
26436;BME280;15351;52.408;16.826;2023-09-19T00:34:43;99982.14;;;21.16;79.59
26436;BME280;15351;52.408;16.826;2023-09-19T00:38:50;99978.30;;;21.22;79.91
26436;BME280;15351;52.408;16.826;2023-09-19T00:46:19;99971.84;;;21.20;80.30
26436;BME280;15351;52.408;16.826;2023-09-19T00:50:21;99962.20;;;21.21;80.10
26436;BME280;15351;52.408;16.826;2023-09-19T00:54:31;99969.19;;;21.15;80.42
26436;BME280;15351;52.408;16.826;2023-09-19T01:44:29;99948.89;;;21.01;83.00
26436;BME280;15351;52.408;16.826;2023-09-19T01:47:47;99945.01;;;21.06;83.26
26436;BME280;15351;52.408;16.826;2023-09-19T01:51:28;99940.42;;;21.15;83.36
26436;BME280;15351;52.408;16.826;2023-09-19T01:54:48;99940.14;;;21.25;83.20
26436;BME280;15351;52.408;16.826;2023-09-19T02:05:59;99943.80;;;21.44;82.51
26436;BME280;15351;52.408;16.826;2023-09-19T02:12:55;99942.14;;;21.43;82.39
26436;BME280;15351;52.408;16.826;2023-09-19T02:23:55;99940.20;;;21.38;82.13
26436;BME280;15351;52.408;16.826;2023-09-19T02:27:43;99950.82;;;21.44;81.96
26436;BME280;15351;52.408;16.826;2023-09-19T02:30:50;99953.64;;;21.45;81.89
26436;BME280;15351;52.408;16.826;2023-09-19T02:42:08;99958.86;;;21.18;81.76
26436;BME280;15351;52.408;16.826;2023-09-19T02:50:03;99957.27;;;21.15;81.85
26436;BME280;15351;52.408;16.826;2023-09-19T02:53:04;99958.63;;;21.13;81.87
26436;BME280;15351;52.408;16.826;2023-09-19T02:57:03;99963.55;;;21.02;81.63
26436;BME280;15351;52.408;16.826;2023-09-19T03:00:42;99970.66;;;20.97;81.87
26436;BME280;15351;52.408;16.826;2023-09-19T03:04:34;99967.30;;;20.98;81.85
26436;BME280;15351;52.408;16.826;2023-09-19T03:11:17;99955.92;;;20.86;81.64
26436;BME280;15351;52.408;16.826;2023-09-19T03:14:42;99957.92;;;20.78;81.58
26436;BME280;15351;52.408;16.826;2023-09-19T03:17:56;99961.42;;;20.74;81.67
26436;BME280;15351;52.408;16.826;2023-09-19T03:36:20;99942.53;;;20.43;81.96
26436;BME280;15351;52.408;16.826;2023-09-19T03:46:35;99929.63;;;20.50;82.82
26436;BME280;15351;52.408;16.826;2023-09-19T03:57:10;99930.18;;;20.45;82.50
26436;BME280;15351;52.408;16.826;2023-09-19T04:00:14;99934.98;;;20.41;82.52
26436;BME280;15351;52.408;16.826;2023-09-19T04:06:46;99949.52;;;20.39;82.37
26436;BME280;15351;52.408;16.826;2023-09-19T04:09:42;99945.06;;;20.43;82.43
26436;BME280;15351;52.408;16.826;2023-09-19T04:15:58;99948.98;;;20.33;82.23
26436;BME280;15351;52.408;16.826;2023-09-19T04:18:52;99942.38;;;20.29;82.33
26436;BME280;15351;52.408;16.826;2023-09-19T04:21:25;99944.12;;;20.28;82.43
26436;BME280;15351;52.408;16.826;2023-09-19T04:24:19;99937.95;;;20.27;82.61
26436;BME280;15351;52.408;16.826;2023-09-19T04:26:58;99938.66;;;20.26;82.42
26436;BME280;15351;52.408;16.826;2023-09-19T04:29:54;99947.05;;;20.23;82.56
26436;BME280;15351;52.408;16.826;2023-09-19T04:35:34;99964.08;;;20.02;82.97
26436;BME280;15351;52.408;16.826;2023-09-19T04:38:04;99958.48;;;20.04;83.57
26436;BME280;15351;52.408;16.826;2023-09-19T04:40:36;99957.77;;;20.01;83.37
26436;BME280;15351;52.408;16.826;2023-09-19T04:43:08;99958.16;;;19.96;83.70
26436;BME280;15351;52.408;16.826;2023-09-19T04:45:39;99949.89;;;19.96;83.92
26436;BME280;15351;52.408;16.826;2023-09-19T04:49:04;99955.20;;;19.89;83.87
26436;BME280;15351;52.408;16.826;2023-09-19T04:51:28;99955.60;;;19.87;84.13
26436;BME280;15351;52.408;16.826;2023-09-19T04:54:04;99960.56;;;19.87;84.29
26436;BME280;15351;52.408;16.826;2023-09-19T04:57:13;99953.55;;;19.85;84.47
26436;BME280;15351;52.408;16.826;2023-09-19T04:59:43;99963.54;;;19.85;84.56
26436;BME280;15351;52.408;16.826;2023-09-19T05:02:24;99969.13;;;19.82;84.66
26436;BME280;15351;52.408;16.826;2023-09-19T05:09:43;99974.77;;;19.83;84.94
26436;BME280;15351;52.408;16.826;2023-09-19T05:12:41;99973.64;;;19.81;84.90
26436;BME280;15351;52.408;16.826;2023-09-19T05:15:30;99975.61;;;19.81;85.11
26436;BME280;15351;52.408;16.826;2023-09-19T05:18:00;99974.91;;;19.78;85.18
26436;BME280;15351;52.408;16.826;2023-09-19T05:20:36;99975.42;;;19.75;85.14
26436;BME280;15351;52.408;16.826;2023-09-19T05:31:51;99987.73;;;19.68;85.85
26436;BME280;15351;52.408;16.826;2023-09-19T05:38:21;99990.34;;;19.71;86.00
26436;BME280;15351;52.408;16.826;2023-09-19T05:41:32;99985.98;;;19.70;86.12
26436;BME280;15351;52.408;16.826;2023-09-19T05:48:37;99984.08;;;19.66;86.23
26436;BME280;15351;52.408;16.826;2023-09-19T05:51:32;99986.02;;;19.68;86.53
26436;BME280;15351;52.408;16.826;2023-09-19T06:06:24;99990.16;;;19.67;86.75
26436;BME280;15351;52.408;16.826;2023-09-19T06:09:02;99994.33;;;19.67;87.10
26436;BME280;15351;52.408;16.826;2023-09-19T06:12:03;99990.78;;;19.62;87.10
26436;BME280;15351;52.408;16.826;2023-09-19T06:18:46;100000.41;;;19.58;87.56
26436;BME280;15351;52.408;16.826;2023-09-19T06:24:59;100005.36;;;19.66;87.60
26436;BME280;15351;52.408;16.826;2023-09-19T06:27:42;100010.59;;;19.67;87.47
26436;BME280;15351;52.408;16.826;2023-09-19T06:30:45;100016.66;;;19.68;87.44
26436;BME280;15351;52.408;16.826;2023-09-19T06:34:20;100019.09;;;19.72;87.37
26436;BME280;15351;52.408;16.826;2023-09-19T06:37:58;100022.82;;;19.75;87.37
26436;BME280;15351;52.408;16.826;2023-09-19T06:44:24;100036.39;;;19.80;87.05
26436;BME280;15351;52.408;16.826;2023-09-19T06:47:53;100040.87;;;19.82;87.38
26436;BME280;15351;52.408;16.826;2023-09-19T06:54:33;100057.77;;;19.88;87.37
26436;BME280;15351;52.408;16.826;2023-09-19T07:04:13;100070.13;;;19.93;87.45
26436;BME280;15351;52.408;16.826;2023-09-19T07:15:29;100081.29;;;20.18;87.01
26436;BME280;15351;52.408;16.826;2023-09-19T07:18:51;100086.72;;;20.27;87.01
26436;BME280;15351;52.408;16.826;2023-09-19T07:38:03;100094.21;;;20.65;86.23
26436;BME280;15351;52.408;16.826;2023-09-19T07:41:34;100106.79;;;20.75;84.75
26436;BME280;15351;52.408;16.826;2023-09-19T07:43:54;100112.84;;;20.76;84.53
26436;BME280;15351;52.408;16.826;2023-09-19T07:47:09;100111.88;;;20.75;83.90
26436;BME280;15351;52.408;16.826;2023-09-19T07:49:46;100114.71;;;20.82;83.85
26436;BME280;15351;52.408;16.826;2023-09-19T07:53:21;100115.29;;;20.96;83.88
26436;BME280;15351;52.408;16.826;2023-09-19T07:56:27;100108.71;;;21.03;82.99
26436;BME280;15351;52.408;16.826;2023-09-19T08:00:10;100112.23;;;21.25;82.35
26436;BME280;15351;52.408;16.826;2023-09-19T08:02:45;100113.16;;;21.39;81.62
26436;BME280;15351;52.408;16.826;2023-09-19T08:05:25;100115.97;;;21.46;81.07
26436;BME280;15351;52.408;16.826;2023-09-19T08:08:16;100118.94;;;21.49;80.16
26436;BME280;15351;52.408;16.826;2023-09-19T08:11:06;100122.73;;;21.43;79.60
26436;BME280;15351;52.408;16.826;2023-09-19T08:13:42;100131.72;;;21.52;79.63
26436;BME280;15351;52.408;16.826;2023-09-19T08:16:24;100139.52;;;21.63;79.08
26436;BME280;15351;52.408;16.826;2023-09-19T08:19:15;100145.11;;;21.66;78.34
26436;BME280;15351;52.408;16.826;2023-09-19T08:22:01;100148.77;;;21.65;78.24
26436;BME280;15351;52.408;16.826;2023-09-19T08:25:06;100156.25;;;21.69;77.37
26436;BME280;15351;52.408;16.826;2023-09-19T08:27:47;100159.95;;;21.71;77.07
26436;BME280;15351;52.408;16.826;2023-09-19T08:31:15;100156.49;;;21.74;76.95
26436;BME280;15351;52.408;16.826;2023-09-19T08:34:05;100157.78;;;21.72;76.37
26436;BME280;15351;52.408;16.826;2023-09-19T08:36:34;100160.55;;;21.77;76.19
26436;BME280;15351;52.408;16.826;2023-09-19T08:39:40;100167.55;;;21.82;75.33
26436;BME280;15351;52.408;16.826;2023-09-19T08:42:52;100172.39;;;21.86;74.57
26436;BME280;15351;52.408;16.826;2023-09-19T08:45:39;100171.75;;;21.89;74.07
26436;BME280;15351;52.408;16.826;2023-09-19T08:51:51;100171.84;;;21.90;73.38
26436;BME280;15351;52.408;16.826;2023-09-19T08:55:15;100167.23;;;21.96;72.66
26436;BME280;15351;52.408;16.826;2023-09-19T08:58:10;100166.98;;;22.06;72.33
26436;BME280;15351;52.408;16.826;2023-09-19T09:01:01;100169.72;;;22.08;71.94
26436;BME280;15351;52.408;16.826;2023-09-19T09:03:45;100172.86;;;22.18;71.57
26436;BME280;15351;52.408;16.826;2023-09-19T09:06:26;100173.65;;;22.20;70.36
26436;BME280;15351;52.408;16.826;2023-09-19T09:09:40;100171.83;;;22.22;69.86
26436;BME280;15351;52.408;16.826;2023-09-19T09:12:20;100171.60;;;22.26;69.76
26436;BME280;15351;52.408;16.826;2023-09-19T09:15:05;100171.31;;;22.35;69.43
26436;BME280;15351;52.408;16.826;2023-09-19T09:18:01;100173.66;;;22.33;68.21
26436;BME280;15351;52.408;16.826;2023-09-19T09:20:31;100175.55;;;22.39;67.56
26436;BME280;15351;52.408;16.826;2023-09-19T09:23:05;100186.39;;;22.68;67.02
26436;BME280;15351;52.408;16.826;2023-09-19T09:26:11;100194.79;;;22.96;66.63
26436;BME280;15351;52.408;16.826;2023-09-19T09:29:44;100200.35;;;23.23;64.59
26436;BME280;15351;52.408;16.826;2023-09-19T09:32:27;100202.34;;;23.18;63.10
26436;BME280;15351;52.408;16.826;2023-09-19T09:35:59;100203.17;;;23.07;62.55
26436;BME280;15351;52.408;16.826;2023-09-19T09:38:44;100211.30;;;22.95;62.23
26436;BME280;15351;52.408;16.826;2023-09-19T09:41:36;100213.90;;;22.85;62.15
26436;BME280;15351;52.408;16.826;2023-09-19T09:44:35;100222.27;;;22.92;62.16
26436;BME280;15351;52.408;16.826;2023-09-19T09:47:44;100231.27;;;23.14;62.30
26436;BME280;15351;52.408;16.826;2023-09-19T09:50:36;100234.38;;;23.47;61.73
26436;BME280;15351;52.408;16.826;2023-09-19T09:53:30;100242.02;;;23.76;61.17
26436;BME280;15351;52.408;16.826;2023-09-19T09:56:31;100244.63;;;23.85;60.23
26436;BME280;15351;52.408;16.826;2023-09-19T10:00:00;100241.67;;;24.03;59.78
26436;BME280;15351;52.408;16.826;2023-09-19T10:05:35;100242.85;;;24.49;57.03
26436;BME280;15351;52.408;16.826;2023-09-19T10:08:21;100247.08;;;24.64;56.96
26436;BME280;15351;52.408;16.826;2023-09-19T10:11:16;100244.40;;;25.01;56.82
26436;BME280;15351;52.408;16.826;2023-09-19T10:13:58;100245.31;;;25.41;56.61
26436;BME280;15351;52.408;16.826;2023-09-19T10:16:32;100244.10;;;25.81;55.71
26436;BME280;15351;52.408;16.826;2023-09-19T10:19:04;100241.67;;;26.12;55.02
26436;BME280;15351;52.408;16.826;2023-09-19T10:21:51;100234.43;;;26.33;53.15
26436;BME280;15351;52.408;16.826;2023-09-19T10:30:25;100235.38;;;25.74;50.57
26436;BME280;15351;52.408;16.826;2023-09-19T10:33:02;100230.02;;;25.76;50.90
26436;BME280;15351;52.408;16.826;2023-09-19T10:35:46;100231.45;;;25.85;49.64
26436;BME280;15351;52.408;16.826;2023-09-19T10:38:41;100231.06;;;25.84;48.77
26436;BME280;15351;52.408;16.826;2023-09-19T10:41:19;100234.11;;;26.02;49.20
26436;BME280;15351;52.408;16.826;2023-09-19T10:43:51;100227.35;;;26.28;49.45
26436;BME280;15351;52.408;16.826;2023-09-19T10:46:40;100229.81;;;26.44;48.28
26436;BME280;15351;52.408;16.826;2023-09-19T10:49:11;100240.98;;;26.20;48.25
26436;BME280;15351;52.408;16.826;2023-09-19T10:55:25;100256.52;;;26.09;48.04
26436;BME280;15351;52.408;16.826;2023-09-19T10:58:56;100261.57;;;25.65;48.07
26436;BME280;15351;52.408;16.826;2023-09-19T11:01:56;100270.30;;;25.34;48.31
26436;BME280;15351;52.408;16.826;2023-09-19T11:05:10;100271.28;;;25.09;47.53
26436;BME280;15351;52.408;16.826;2023-09-19T11:11:06;100263.12;;;25.13;47.66
26436;BME280;15351;52.408;16.826;2023-09-19T11:17:56;100268.54;;;25.32;47.43
26436;BME280;15351;52.408;16.826;2023-09-19T11:23:40;100275.71;;;25.44;46.98
26436;BME280;15351;52.408;16.826;2023-09-19T11:30:30;100285.11;;;25.12;46.15
26436;BME280;15351;52.408;16.826;2023-09-19T11:36:48;100287.28;;;24.86;47.19
26436;BME280;15351;52.408;16.826;2023-09-19T11:47:38;100284.38;;;24.82;47.59
26436;BME280;15351;52.408;16.826;2023-09-19T11:50:18;100286.03;;;24.92;46.72
26436;BME280;15351;52.408;16.826;2023-09-19T11:53:52;100280.25;;;24.85;46.61
26436;BME280;15351;52.408;16.826;2023-09-19T11:56:48;100276.93;;;24.99;46.02
26436;BME280;15351;52.408;16.826;2023-09-19T12:03:51;100277.42;;;24.98;45.18
26436;BME280;15351;52.408;16.826;2023-09-19T12:06:37;100273.73;;;24.98;45.14
26436;BME280;15351;52.408;16.826;2023-09-19T12:09:32;100276.78;;;25.02;45.77
26436;BME280;15351;52.408;16.826;2023-09-19T12:15:27;100265.80;;;25.23;45.18
26436;BME280;15351;52.408;16.826;2023-09-19T12:17:56;100267.23;;;25.41;45.54
26436;BME280;15351;52.408;16.826;2023-09-19T12:21:04;100266.55;;;25.52;45.10
26436;BME280;15351;52.408;16.826;2023-09-19T12:24:17;100265.23;;;25.58;44.16
26436;BME280;15351;52.408;16.826;2023-09-19T12:27:12;100262.44;;;25.48;43.36
26436;BME280;15351;52.408;16.826;2023-09-19T12:29:47;100260.91;;;25.33;43.07
26436;BME280;15351;52.408;16.826;2023-09-19T12:32:34;100266.29;;;25.20;43.47
26436;BME280;15351;52.408;16.826;2023-09-19T12:39:04;100264.13;;;24.98;43.78
26436;BME280;15351;52.408;16.826;2023-09-19T12:41:57;100266.29;;;24.86;43.51
26436;BME280;15351;52.408;16.826;2023-09-19T12:44:37;100260.81;;;24.83;43.30
26436;BME280;15351;52.408;16.826;2023-09-19T12:48:17;100263.95;;;24.94;43.35
26436;BME280;15351;52.408;16.826;2023-09-19T12:50:33;100270.80;;;25.13;43.72
26436;BME280;15351;52.408;16.826;2023-09-19T12:53:07;100270.63;;;25.26;43.50
26436;BME280;15351;52.408;16.826;2023-09-19T12:56:17;100274.08;;;25.21;42.93
26436;BME280;15351;52.408;16.826;2023-09-19T12:58:58;100268.86;;;25.10;42.70
26436;BME280;15351;52.408;16.826;2023-09-19T13:01:32;100270.04;;;25.03;42.57
26436;BME280;15351;52.408;16.826;2023-09-19T13:04:47;100264.56;;;24.97;42.70
26436;BME280;15351;52.408;16.826;2023-09-19T13:07:45;100261.92;;;24.84;43.05
26436;BME280;15351;52.408;16.826;2023-09-19T13:13:37;100271.02;;;24.82;43.72
26436;BME280;15351;52.408;16.826;2023-09-19T13:19:39;100276.25;;;24.73;43.66
26436;BME280;15351;52.408;16.826;2023-09-19T13:22:39;100269.48;;;24.63;43.57
26436;BME280;15351;52.408;16.826;2023-09-19T13:28:58;100265.83;;;24.69;44.23
26436;BME280;15351;52.408;16.826;2023-09-19T13:31:31;100261.84;;;24.76;44.29
26436;BME280;15351;52.408;16.826;2023-09-19T13:34:02;100264.66;;;24.81;44.39
26436;BME280;15351;52.408;16.826;2023-09-19T13:36:56;100265.51;;;24.72;44.54
26436;BME280;15351;52.408;16.826;2023-09-19T13:43:07;100279.45;;;24.49;44.97
26436;BME280;15351;52.408;16.826;2023-09-19T13:45:58;100281.26;;;24.30;45.13
26436;BME280;15351;52.408;16.826;2023-09-19T13:49:06;100276.98;;;23.97;45.75
26436;BME280;15351;52.408;16.826;2023-09-19T13:55:41;100268.21;;;23.92;47.30
26436;BME280;15351;52.408;16.826;2023-09-19T13:58:38;100268.22;;;23.98;47.62
26436;BME280;15351;52.408;16.826;2023-09-19T14:01:33;100271.34;;;23.90;46.91
26436;BME280;15351;52.408;16.826;2023-09-19T14:04:12;100275.80;;;23.75;47.03
26436;BME280;15351;52.408;16.826;2023-09-19T14:06:43;100276.10;;;23.71;47.30
26436;BME280;15351;52.408;16.826;2023-09-19T14:09:12;100269.13;;;23.61;47.65
26436;BME280;15351;52.408;16.826;2023-09-19T14:11:43;100277.74;;;23.60;47.44
26436;BME280;15351;52.408;16.826;2023-09-19T14:14:22;100277.50;;;23.44;46.42
26436;BME280;15351;52.408;16.826;2023-09-19T14:16:56;100278.33;;;23.35;45.60
26436;BME280;15351;52.408;16.826;2023-09-19T14:19:41;100276.81;;;23.19;45.39
26436;BME280;15351;52.408;16.826;2023-09-19T14:22:33;100275.84;;;23.06;45.31
26436;BME280;15351;52.408;16.826;2023-09-19T14:25:13;100280.59;;;22.99;45.71
26436;BME280;15351;52.408;16.826;2023-09-19T14:27:50;100271.35;;;22.95;45.79
26436;BME280;15351;52.408;16.826;2023-09-19T14:30:42;100281.02;;;23.01;46.04
26436;BME280;15351;52.408;16.826;2023-09-19T14:33:23;100282.17;;;23.06;45.62
26436;BME280;15351;52.408;16.826;2023-09-19T14:36:28;100284.69;;;23.05;45.03
26436;BME280;15351;52.408;16.826;2023-09-19T14:39:02;100285.33;;;23.01;45.02
26436;BME280;15351;52.408;16.826;2023-09-19T14:42:06;100290.98;;;23.00;44.68
26436;BME280;15351;52.408;16.826;2023-09-19T14:44:54;100293.98;;;22.96;44.43
26436;BME280;15351;52.408;16.826;2023-09-19T14:48:01;100299.69;;;22.88;44.48
26436;BME280;15351;52.408;16.826;2023-09-19T14:55:23;100302.55;;;22.65;44.04
26436;BME280;15351;52.408;16.826;2023-09-19T14:58:12;100301.27;;;22.54;44.35
26436;BME280;15351;52.408;16.826;2023-09-19T15:01:41;100303.40;;;22.49;44.35
26436;BME280;15351;52.408;16.826;2023-09-19T15:06:01;100303.20;;;22.41;44.88
26436;BME280;15351;52.408;16.826;2023-09-19T15:09:21;100305.41;;;22.41;45.10
26436;BME280;15351;52.408;16.826;2023-09-19T15:12:37;100300.66;;;22.37;45.16
26436;BME280;15351;52.408;16.826;2023-09-19T15:15:12;100308.52;;;22.37;45.33
26436;BME280;15351;52.408;16.826;2023-09-19T15:17:43;100305.84;;;22.35;45.14
26436;BME280;15351;52.408;16.826;2023-09-19T15:24:14;100309.77;;;22.25;44.89
26436;BME280;15351;52.408;16.826;2023-09-19T15:26:56;100307.98;;;22.16;44.80
26436;BME280;15351;52.408;16.826;2023-09-19T15:29:28;100312.66;;;22.13;45.04
26436;BME280;15351;52.408;16.826;2023-09-19T15:35:26;100312.11;;;22.09;45.47
26436;BME280;15351;52.408;16.826;2023-09-19T15:38:50;100305.75;;;22.06;45.37
26436;BME280;15351;52.408;16.826;2023-09-19T15:41:38;100306.30;;;22.01;45.35
26436;BME280;15351;52.408;16.826;2023-09-19T15:44:14;100311.63;;;21.96;45.71
26436;BME280;15351;52.408;16.826;2023-09-19T15:47:03;100312.86;;;21.98;45.91
26436;BME280;15351;52.408;16.826;2023-09-19T15:49:43;100316.13;;;21.99;46.23
26436;BME280;15351;52.408;16.826;2023-09-19T15:52:35;100319.09;;;21.94;45.92
26436;BME280;15351;52.408;16.826;2023-09-19T15:55:23;100319.01;;;21.90;45.97
26436;BME280;15351;52.408;16.826;2023-09-19T15:57:53;100324.80;;;21.85;46.11
26436;BME280;15351;52.408;16.826;2023-09-19T16:00:39;100325.08;;;21.82;46.45
26436;BME280;15351;52.408;16.826;2023-09-19T16:03:13;100323.23;;;21.82;46.63
26436;BME280;15351;52.408;16.826;2023-09-19T16:05:47;100323.83;;;21.70;46.48
26436;BME280;15351;52.408;16.826;2023-09-19T16:08:31;100330.80;;;21.67;46.57
26436;BME280;15351;52.408;16.826;2023-09-19T16:14:48;100336.60;;;21.59;46.91
26436;BME280;15351;52.408;16.826;2023-09-19T16:17:25;100337.27;;;21.56;46.99
26436;BME280;15351;52.408;16.826;2023-09-19T16:19:52;100335.77;;;21.52;47.34
26436;BME280;15351;52.408;16.826;2023-09-19T16:23:06;100337.94;;;21.51;47.67
26436;BME280;15351;52.408;16.826;2023-09-19T16:28:49;100340.05;;;21.47;48.16
26436;BME280;15351;52.408;16.826;2023-09-19T16:31:51;100340.38;;;21.41;48.18
26436;BME280;15351;52.408;16.826;2023-09-19T16:34:32;100340.30;;;21.34;48.20
26436;BME280;15351;52.408;16.826;2023-09-19T16:37:01;100343.90;;;21.30;48.25
26436;BME280;15351;52.408;16.826;2023-09-19T16:39:49;100341.73;;;21.26;48.36
26436;BME280;15351;52.408;16.826;2023-09-19T16:42:28;100344.20;;;21.20;48.76
26436;BME280;15351;52.408;16.826;2023-09-19T16:45:08;100337.55;;;21.13;48.91
26436;BME280;15351;52.408;16.826;2023-09-19T16:47:57;100343.58;;;21.08;49.06
26436;BME280;15351;52.408;16.826;2023-09-19T16:50:28;100349.38;;;21.02;49.33
26436;BME280;15351;52.408;16.826;2023-09-19T16:52:58;100347.48;;;20.93;49.68
26436;BME280;15351;52.408;16.826;2023-09-19T16:59:17;100348.34;;;20.77;50.17
26436;BME280;15351;52.408;16.826;2023-09-19T17:02:07;100349.56;;;20.75;50.79
26436;BME280;15351;52.408;16.826;2023-09-19T17:04:57;100351.96;;;20.71;50.71
26436;BME280;15351;52.408;16.826;2023-09-19T17:07:35;100353.23;;;20.65;51.32
26436;BME280;15351;52.408;16.826;2023-09-19T17:10:35;100358.51;;;20.65;51.98
26436;BME280;15351;52.408;16.826;2023-09-19T17:13:55;100359.20;;;20.66;52.43
26436;BME280;15351;52.408;16.826;2023-09-19T17:16:57;100365.27;;;20.65;52.67
26436;BME280;15351;52.408;16.826;2023-09-19T17:20:18;100366.65;;;20.62;52.71
26436;BME280;15351;52.408;16.826;2023-09-19T17:23:51;100367.53;;;20.57;53.10
26436;BME280;15351;52.408;16.826;2023-09-19T17:27:14;100370.42;;;20.52;53.35
26436;BME280;15351;52.408;16.826;2023-09-19T17:33:34;100372.26;;;20.35;54.17
26436;BME280;15351;52.408;16.826;2023-09-19T17:36:13;100370.24;;;20.30;54.57
26436;BME280;15351;52.408;16.826;2023-09-19T17:38:56;100368.27;;;20.23;54.69
26436;BME280;15351;52.408;16.826;2023-09-19T17:41:40;100376.86;;;20.18;54.78
26436;BME280;15351;52.408;16.826;2023-09-19T17:44:16;100377.52;;;20.11;55.26
26436;BME280;15351;52.408;16.826;2023-09-19T17:46:58;100383.37;;;20.04;55.30
26436;BME280;15351;52.408;16.826;2023-09-19T17:49:40;100379.94;;;19.97;55.44
26436;BME280;15351;52.408;16.826;2023-09-19T17:53:35;100379.35;;;19.86;55.49
26436;BME280;15351;52.408;16.826;2023-09-19T17:57:14;100383.55;;;19.75;56.08
26436;BME280;15351;52.408;16.826;2023-09-19T18:00:53;100391.08;;;19.72;56.52
26436;BME280;15351;52.408;16.826;2023-09-19T18:04:03;100398.65;;;19.64;56.70
26436;BME280;15351;52.408;16.826;2023-09-19T18:07:19;100402.73;;;19.54;57.03
26436;BME280;15351;52.408;16.826;2023-09-19T18:17:58;100404.89;;;19.16;57.95
26436;BME280;15351;52.408;16.826;2023-09-19T18:24:27;100422.55;;;19.16;58.70
26436;BME280;15351;52.408;16.826;2023-09-19T18:31:28;100425.59;;;19.13;59.07
26436;BME280;15351;52.408;16.826;2023-09-19T18:42:03;100430.09;;;18.99;59.36
26436;BME280;15351;52.408;16.826;2023-09-19T18:45:11;100430.95;;;18.84;59.64
26436;BME280;15351;52.408;16.826;2023-09-19T18:48:38;100436.16;;;18.78;60.08
26436;BME280;15351;52.408;16.826;2023-09-19T18:52:04;100432.84;;;18.73;60.32
26436;BME280;15351;52.408;16.826;2023-09-19T18:55:21;100438.63;;;18.64;60.36
26436;BME280;15351;52.408;16.826;2023-09-19T18:58:25;100438.67;;;18.55;60.63
26436;BME280;15351;52.408;16.826;2023-09-19T19:01:55;100439.77;;;18.45;61.09
26436;BME280;15351;52.408;16.826;2023-09-19T19:11:28;100445.69;;;18.39;61.69
26436;BME280;15351;52.408;16.826;2023-09-19T19:14:09;100445.48;;;18.43;61.83
26436;BME280;15351;52.408;16.826;2023-09-19T19:31:55;100434.74;;;18.22;61.81
26436;BME280;15351;52.408;16.826;2023-09-19T19:34:58;100437.30;;;18.05;61.94
26436;BME280;15351;52.408;16.826;2023-09-19T19:37:46;100429.79;;;18.05;62.03
26436;BME280;15351;52.408;16.826;2023-09-19T19:40:18;100428.54;;;18.08;62.00
26436;BME280;15351;52.408;16.826;2023-09-19T19:49:20;100435.73;;;18.02;61.67
26436;BME280;15351;52.408;16.826;2023-09-19T19:52:09;100443.48;;;17.90;61.69
26436;BME280;15351;52.408;16.826;2023-09-19T19:55:31;100440.36;;;17.79;61.86
26436;BME280;15351;52.408;16.826;2023-09-19T19:58:15;100442.02;;;17.77;62.17
26436;BME280;15351;52.408;16.826;2023-09-19T20:00:49;100444.94;;;17.74;61.93
26436;BME280;15351;52.408;16.826;2023-09-19T20:03:17;100448.11;;;17.71;61.94
26436;BME280;15351;52.408;16.826;2023-09-19T20:06:21;100446.62;;;17.68;61.88
26436;BME280;15351;52.408;16.826;2023-09-19T20:08:50;100447.23;;;17.62;62.20
26436;BME280;15351;52.408;16.826;2023-09-19T20:11:55;100446.00;;;17.60;62.44
26436;BME280;15351;52.408;16.826;2023-09-19T20:14:35;100440.58;;;17.59;62.54
26436;BME280;15351;52.408;16.826;2023-09-19T20:17:23;100441.62;;;17.61;62.53
26436;BME280;15351;52.408;16.826;2023-09-19T20:20:28;100441.92;;;17.61;62.34
26436;BME280;15351;52.408;16.826;2023-09-19T20:23:13;100439.18;;;17.57;62.56
26436;BME280;15351;52.408;16.826;2023-09-19T20:26:09;100443.14;;;17.52;62.34
26436;BME280;15351;52.408;16.826;2023-09-19T20:29:00;100445.20;;;17.50;62.58
26436;BME280;15351;52.408;16.826;2023-09-19T20:38:37;100453.39;;;17.51;62.64
26436;BME280;15351;52.408;16.826;2023-09-19T20:41:29;100452.45;;;17.46;62.38
26436;BME280;15351;52.408;16.826;2023-09-19T20:44:35;100451.63;;;17.38;62.56
26436;BME280;15351;52.408;16.826;2023-09-19T20:48:15;100448.20;;;17.26;62.97
26436;BME280;15351;52.408;16.826;2023-09-19T20:51:57;100451.16;;;17.21;62.93
26436;BME280;15351;52.408;16.826;2023-09-19T20:55:28;100452.39;;;17.18;62.91
26436;BME280;15351;52.408;16.826;2023-09-19T20:58:16;100449.25;;;17.11;62.79
26436;BME280;15351;52.408;16.826;2023-09-19T21:01:25;100450.20;;;17.02;63.16
26436;BME280;15351;52.408;16.826;2023-09-19T21:07:31;100450.01;;;17.09;63.43
26436;BME280;15351;52.408;16.826;2023-09-19T21:10:42;100449.50;;;17.10;63.26
26436;BME280;15351;52.408;16.826;2023-09-19T21:13:20;100452.48;;;17.10;63.31
26436;BME280;15351;52.408;16.826;2023-09-19T21:16:43;100448.63;;;17.01;63.32
26436;BME280;15351;52.408;16.826;2023-09-19T21:19:45;100453.88;;;17.03;63.59
26436;BME280;15351;52.408;16.826;2023-09-19T21:22:25;100457.86;;;17.01;63.77